首页
METAR-TAF:

METAR-TAF

机场 :

萊切, 意大利

纬度: 40-14N, 经度: 018-09E, 海拔: 48米

当前天气观测

该预报发布于47分钟前的22:55 UTC
风速1节,风向多变
温度 13°C
湿度 94%
气压 1015 hPa
能见度10公里或以上
1500米以下无云,无积雨云

METAR: LIBN 312255Z VRB01KT CAVOK 13/12 Q1015 RMK SCT SCT100 VIS MIN 9999 WIND THR14 VRB01KT WIND THR32 VRB01KT BLU

时间: 01:42 (23:42 UTC)


TAF: 丢失

超过4000个机场的气象观测和天气预报(METAR&TAF报告)。

可查询的气象台以黄色和红色小点在地图上表示。

将鼠标移到小点上方,可查看气象台名称。

然后点击查看天气观测和预报。

如需切换地图:点击带黑十字的绿色按钮放大地图;点击带横线的绿色按钮缩小地图;或者点击绿色箭头查看邻近地区的地图。


METAR-TAF: